Time;durP1;ratioP1;P1;durP2;ratioP2;P2;SDS_P1;SDS_P2;PMS_P1;PMS_P2;Temp;Humidity;BMP_temperature;BMP_pressure;BME280_temperature;BME280_humidity;BME280_pressure;Samples;Min_cycle;Max_cycle;Signal;HPM_P1;HPM_P2
2023/05/17 00:01:06;;;;;;;8.32;7.43;;;;;;;16.47;70.07;100149.31;5069480;28;20205;-54
2023/05/17 00:03:34;;;;;;;10.85;8.23;;;;;;;16.45;70.10;100155.47;5070184;28;20209;-63
2023/05/17 00:06:02;;;;;;;11.10;9.30;;;;;;;16.39;69.79;100154.78;5072405;28;20669;-53
2023/05/17 00:08:31;;;;;;;10.63;9.40;;;;;;;16.36;69.37;100154.03;5069947;28;20572;-50
2023/05/17 00:10:58;;;;;;;12.02;8.85;;;;;;;16.31;69.38;100150.72;5072042;28;20206;-52
2023/05/17 00:13:26;;;;;;;11.48;10.23;;;;;;;16.29;69.17;100150.78;5065659;28;20213;-49
2023/05/17 00:15:54;;;;;;;12.50;8.05;;;;;;;16.27;69.61;100144.78;5063596;28;20657;-53
2023/05/17 00:18:24;;;;;;;9.05;8.05;;;;;;;16.28;70.35;100151.69;5068046;28;20533;-50
2023/05/17 00:20:52;;;;;;;10.98;8.50;;;;;;;16.29;70.78;100150.78;5071824;28;20725;-50
2023/05/17 00:23:20;;;;;;;10.20;8.38;;;;;;;16.27;70.88;100149.97;5071013;28;20201;-54
2023/05/17 00:25:47;;;;;;;11.48;8.60;;;;;;;16.23;71.07;100148.38;5072540;28;20241;-57
2023/05/17 00:28:15;;;;;;;10.38;9.38;;;;;;;16.11;70.74;100154.00;5071245;28;20736;-54
2023/05/17 00:30:44;;;;;;;15.82;10.02;;;;;;;15.94;71.09;100158.00;5065139;28;20679;-49
2023/05/17 00:33:11;;;;;;;11.82;10.05;;;;;;;15.79;71.78;100153.25;5065687;28;20205;-51
2023/05/17 00:35:41;;;;;;;12.10;10.00;;;;;;;15.69;71.98;100157.06;5065478;28;20212;-50
2023/05/17 00:38:08;;;;;;;11.82;10.63;;;;;;;15.66;72.51;100151.94;5071325;28;20236;-51
2023/05/17 00:40:36;;;;;;;11.82;10.63;;;;;;;15.64;72.48;100164.94;5069804;28;20216;-50
2023/05/17 00:43:04;;;;;;;12.65;11.35;;;;;;;15.64;72.75;100159.75;5065164;28;20216;-49
2023/05/17 00:45:32;;;;;;;11.68;10.55;;;;;;;15.66;72.88;100162.34;5069217;28;20655;-49
2023/05/17 00:48:00;;;;;;;10.70;9.70;;;;;;;15.69;72.49;100165.69;5071842;28;20256;-49
2023/05/17 00:50:28;;;;;;;11.70;10.30;;;;;;;15.69;71.95;100159.66;5066706;28;20652;-53
2023/05/17 00:52:58;;;;;;;11.52;10.40;;;;;;;15.69;71.72;100159.66;5070677;28;20555;-49
2023/05/17 00:55:26;;;;;;;12.07;10.25;;;;;;;15.68;71.37;100153.63;5069209;28;20225;-50
2023/05/17 00:57:54;;;;;;;10.43;9.43;;;;;;;15.69;71.90;100152.72;5068214;28;20213;-50
2023/05/17 01:00:23;;;;;;;9.98;9.00;;;;;;;15.70;71.57;100149.19;5062696;28;20304;-51
2023/05/17 01:02:51;;;;;;;12.73;10.20;;;;;;;15.65;70.87;100155.41;5064133;28;20197;-50
2023/05/17 01:05:19;;;;;;;9.30;8.45;;;;;;;15.60;71.15;100152.09;5066807;28;20559;-50
2023/05/17 01:07:47;;;;;;;10.13;9.02;;;;;;;15.57;71.13;100153.03;5065659;28;20201;-50
2023/05/17 01:10:16;;;;;;;10.25;8.98;;;;;;;15.57;71.15;100147.00;5067117;28;20205;-52
2023/05/17 01:12:59;;;;;;;11.25;9.25;;;;;;;15.55;71.10;100148.81;5069696;28;20197;-50
2023/05/17 01:15:31;;;;;;;9.82;8.82;;;;;;;15.57;71.31;100155.63;5070819;28;20255;-52
2023/05/17 01:18:09;;;;;;;9.38;8.35;;;;;;;15.52;71.06;100143.69;5070273;28;20205;-52
2023/05/17 01:20:40;;;;;;;9.05;8.18;;;;;;;15.55;71.16;100154.84;5068122;28;20344;-51
2023/05/17 01:23:24;;;;;;;8.82;7.95;;;;;;;15.53;70.75;100145.38;5065889;28;20544;-51
2023/05/17 01:25:58;;;;;;;9.27;8.37;;;;;;;15.49;70.86;100144.63;5070111;28;20233;-51
2023/05/17 01:28:31;;;;;;;8.73;7.93;;;;;;;15.48;71.44;100144.69;5070903;28;20209;-51
2023/05/17 01:31:02;;;;;;;9.73;7.35;;;;;;;15.46;71.16;100145.59;5067977;28;20660;-52
2023/05/17 01:33:31;;;;;;;9.48;8.27;;;;;;;15.49;71.48;100141.19;5069682;28;20205;-51
2023/05/17 01:35:59;;;;;;;8.88;8.07;;;;;;;15.52;71.22;100144.53;5062885;28;20237;-53
2023/05/17 01:38:27;;;;;;;8.80;8.00;;;;;;;15.55;71.06;100151.41;5067836;28;20208;-61
2023/05/17 01:41:01;;;;;;;8.17;7.37;;;;;;;15.53;71.28;100151.44;5066574;28;20201;-49
2023/05/17 01:43:39;;;;;;;8.15;7.35;;;;;;;15.54;71.08;100152.28;5068693;28;20530;-49
2023/05/17 01:46:12;;;;;;;8.80;7.82;;;;;;;15.53;71.19;100145.38;5070571;28;20205;-49
2023/05/17 01:48:45;;;;;;;8.73;7.50;;;;;;;15.50;70.92;100145.47;5071030;28;20302;-50
2023/05/17 01:51:18;;;;;;;8.13;7.37;;;;;;;15.41;71.26;100144.84;5064784;28;20201;-49
2023/05/17 01:53:51;;;;;;;9.95;8.98;;;;;;;15.38;71.74;100147.53;5066516;28;20222;-50
2023/05/17 01:56:21;;;;;;;8.57;7.67;;;;;;;15.38;71.71;100149.28;5063418;28;20275;-51
2023/05/17 01:58:53;;;;;;;11.43;8.30;;;;;;;15.34;71.64;100138.16;5068026;28;20197;-50
2023/05/17 02:01:22;;;;;;;9.70;8.70;;;;;;;15.31;72.21;100145.16;5068016;28;20204;-49
2023/05/17 02:03:50;;;;;;;10.40;8.60;;;;;;;15.30;72.15;100149.53;5069913;28;20578;-50
2023/05/17 02:06:18;;;;;;;9.27;8.27;;;;;;;15.29;72.38;100152.19;5067172;28;20205;-50
2023/05/17 02:08:46;;;;;;;8.77;7.97;;;;;;;15.25;72.51;100151.41;5069505;28;20252;-50
2023/05/17 02:11:14;;;;;;;8.95;8.05;;;;;;;15.23;72.93;100153.19;5065424;28;20197;-49
2023/05/17 02:13:42;;;;;;;8.93;8.10;;;;;;;15.20;72.70;100158.47;5069774;28;20220;-51
2023/05/17 02:16:11;;;;;;;9.93;8.93;;;;;;;15.12;72.98;100158.69;5059752;28;20232;-50
2023/05/17 02:18:40;;;;;;;9.23;8.33;;;;;;;15.07;72.85;100155.38;5068129;28;20209;-51
2023/05/17 02:21:08;;;;;;;10.00;9.00;;;;;;;15.04;73.05;100154.63;5069089;28;20228;-50
2023/05/17 02:23:36;;;;;;;9.23;8.32;;;;;;;15.00;73.56;100153.00;5069161;28;20682;-54
2023/05/17 02:26:04;;;;;;;10.67;9.57;;;;;;;14.98;73.34;100153.91;5054064;28;20233;-50
2023/05/17 02:28:32;;;;;;;11.20;10.10;;;;;;;14.95;73.30;100159.16;5066946;28;20210;-52
2023/05/17 02:31:00;;;;;;;10.23;9.23;;;;;;;14.90;73.76;100160.19;5067962;28;20197;-53
2023/05/17 02:33:29;;;;;;;10.75;9.75;;;;;;;14.83;73.45;100164.69;5073981;28;20205;-49
2023/05/17 02:35:57;;;;;;;11.40;10.30;;;;;;;14.80;73.63;100159.59;5067636;28;20236;-47
2023/05/17 02:38:25;;;;;;;11.63;10.53;;;;;;;14.80;74.00;100159.59;5072220;28;20247;-51
2023/05/17 02:40:53;;;;;;;11.47;10.37;;;;;;;14.77;73.96;100166.63;5069645;28;20213;-49
2023/05/17 02:43:21;;;;;;;11.17;10.07;;;;;;;14.67;nan;100158.22;5067760;28;20215;-50
2023/05/17 02:45:49;;;;;;;12.13;10.87;;;;;;;14.64;74.75;100158.28;5072899;28;20282;-58
2023/05/17 02:48:17;;;;;;;11.37;10.17;;;;;;;14.58;74.51;100169.69;5070932;28;20202;-48
2023/05/17 02:50:46;;;;;;;12.07;10.87;;;;;;;14.57;75.10;100169.72;5072390;28;20200;-50
2023/05/17 02:53:14;;;;;;;13.23;11.00;;;;;;;14.57;74.92;100186.13;5071546;28;20205;-61
2023/05/17 02:55:42;;;;;;;11.47;10.27;;;;;;;14.57;74.73;100180.09;5071029;28;20225;-49
2023/05/17 02:58:10;;;;;;;10.47;9.47;;;;;;;14.56;75.06;100176.63;5072075;28;20213;-50
2023/05/17 03:00:38;;;;;;;11.83;10.67;;;;;;;14.54;74.87;100177.56;5069665;28;20654;-50
2023/05/17 03:03:06;;;;;;;12.63;10.13;;;;;;;14.52;75.42;100167.25;5072927;28;20205;-49
2023/05/17 03:05:34;;;;;;;11.47;10.37;;;;;;;14.51;75.19;100178.50;5070991;28;20205;-50
2023/05/17 03:08:03;;;;;;;10.27;9.37;;;;;;;14.50;75.16;100181.97;5068124;28;20686;-51
2023/05/17 03:10:31;;;;;;;12.33;11.13;;;;;;;14.48;75.13;100183.75;5070597;28;20205;-49
2023/05/17 03:12:59;;;;;;;10.73;9.67;;;;;;;14.47;75.54;100182.91;5071917;28;20201;-50
2023/05/17 03:15:28;;;;;;;10.73;9.73;;;;;;;14.47;75.37;100187.19;5069309;28;20224;-51
2023/05/17 03:17:56;;;;;;;11.07;10.07;;;;;;;14.48;75.24;100188.94;5066897;28;20658;-49
2023/05/17 03:20:24;;;;;;;10.80;9.70;;;;;;;14.50;75.23;100192.34;5064639;28;20217;-52
2023/05/17 03:22:52;;;;;;;11.30;10.20;;;;;;;14.49;75.48;100196.69;5066485;28;20284;-50
2023/05/17 03:25:22;;;;;;;10.60;9.60;;;;;;;14.54;75.05;100208.69;5069334;28;20726;-57
2023/05/17 03:27:49;;;;;;;11.10;9.93;;;;;;;14.56;75.03;100196.53;5067352;28;20204;-52
2023/05/17 03:30:18;;;;;;;12.63;9.33;;;;;;;14.60;75.01;100195.56;5070497;28;20877;-50
2023/05/17 03:32:46;;;;;;;10.43;9.43;;;;;;;14.56;75.02;100193.94;5066902;28;20652;-50
2023/05/17 03:35:14;;;;;;;10.67;9.57;;;;;;;14.52;74.98;100189.72;5071874;28;20688;-50
2023/05/17 03:37:42;;;;;;;11.40;10.03;;;;;;;14.46;74.96;100185.50;5070521;28;20997;-50
2023/05/17 03:40:10;;;;;;;11.20;9.60;;;;;;;14.42;75.77;100192.50;5071449;28;20731;-51
2023/05/17 03:42:40;;;;;;;11.30;10.20;;;;;;;14.43;75.28;100193.34;5071579;28;20210;-49
2023/05/17 03:45:08;;;;;;;10.90;9.87;;;;;;;14.40;75.97;100194.31;5063386;28;20577;-55
2023/05/17 03:47:36;;;;;;;10.20;9.20;;;;;;;14.40;75.45;100207.25;5071008;28;20681;-56
2023/05/17 03:50:05;;;;;;;10.77;9.77;;;;;;;14.37;75.94;100196.97;5064818;28;20233;-50
2023/05/17 03:52:33;;;;;;;10.67;9.67;;;;;;;14.36;76.20;100195.28;5070248;28;20217;-48
2023/05/17 03:55:01;;;;;;;10.40;9.40;;;;;;;14.34;76.30;100197.03;5071440;28;20212;-50
2023/05/17 03:57:29;;;;;;;10.20;9.30;;;;;;;14.33;75.79;100194.50;5070618;28;20287;-51
2023/05/17 03:59:59;;;;;;;10.80;9.03;;;;;;;14.32;76.28;100198.81;5069909;28;20555;-52
2023/05/17 04:02:27;;;;;;;10.43;9.43;;;;;;;14.33;76.04;100203.13;5069122;28;20563;-50
2023/05/17 04:04:55;;;;;;;9.67;8.87;;;;;;;14.34;76.26;100197.03;5070193;28;20212;-51
2023/05/17 04:07:23;;;;;;;10.27;9.37;;;;;;;14.37;76.03;100207.34;5070067;28;20565;-50
2023/05/17 04:09:51;;;;;;;10.10;9.10;;;;;;;14.41;75.95;100213.31;5071913;28;20212;-49
2023/05/17 04:12:19;;;;;;;13.80;9.17;;;;;;;14.39;75.88;100205.53;5069388;28;20205;-50
2023/05/17 04:14:46;;;;;;;9.53;8.63;;;;;;;14.40;76.50;100201.22;5070455;28;20205;-49
2023/05/17 04:17:16;;;;;;;9.43;8.63;;;;;;;14.41;76.32;100205.53;5070685;28;20743;-50
2023/05/17 04:19:44;;;;;;;9.33;8.50;;;;;;;14.42;76.40;100218.44;5069770;28;20665;-51
2023/05/17 04:22:11;;;;;;;8.80;8.00;;;;;;;14.42;75.55;100218.44;5063085;28;20563;-49
2023/05/17 04:24:40;;;;;;;9.13;8.33;;;;;;;14.39;76.26;100223.69;5061777;28;20331;-49
2023/05/17 04:27:07;;;;;;;9.17;8.37;;;;;;;14.43;76.65;100216.69;5064778;28;20198;-51
2023/05/17 04:29:35;;;;;;;8.80;7.90;;;;;;;14.44;76.21;100214.06;5070424;28;20209;-50
2023/05/17 04:32:03;;;;;;;8.70;7.90;;;;;;;14.46;75.88;100217.47;5060358;28;20600;-50
2023/05/17 04:34:32;;;;;;;8.80;8.00;;;;;;;14.47;76.17;100224.38;5060657;28;20564;-50
2023/05/17 04:37:00;;;;;;;8.13;7.43;;;;;;;14.43;76.07;100227.06;5063886;28;20300;-51
2023/05/17 04:39:28;;;;;;;8.03;7.33;;;;;;;14.38;75.98;100218.56;5068795;28;20201;-52
2023/05/17 04:41:57;;;;;;;7.60;6.93;;;;;;;14.31;75.69;100223.03;5069579;28;20266;-48
2023/05/17 04:44:25;;;;;;;7.77;7.07;;;;;;;14.27;76.26;100219.66;5062010;28;20539;-49
2023/05/17 04:46:53;;;;;;;8.10;7.30;;;;;;;14.25;76.03;100224.03;5069665;28;20217;-51
2023/05/17 04:49:23;;;;;;;7.07;6.47;;;;;;;14.22;76.58;100224.09;5070870;28;20205;-52
2023/05/17 04:51:53;;;;;;;6.87;6.17;;;;;;;14.20;76.62;100225.88;5058453;28;20237;-52
2023/05/17 04:54:21;;;;;;;7.23;6.63;;;;;;;14.24;76.58;100231.84;5069316;28;20271;-51
2023/05/17 04:56:49;;;;;;;7.70;7.00;;;;;;;14.28;75.96;100233.47;5064800;28;20481;-57
2023/05/17 04:59:16;;;;;;;7.33;6.67;;;;;;;14.28;76.11;100233.47;5066138;28;20642;-50
2023/05/17 05:01:44;;;;;;;7.47;6.77;;;;;;;14.30;76.48;100233.44;5069032;28;20213;-49
2023/05/17 05:04:12;;;;;;;7.47;6.77;;;;;;;14.30;75.64;100242.06;5069744;28;20202;-48
2023/05/17 05:06:40;;;;;;;7.90;6.10;;;;;;;14.31;76.40;100243.75;5063045;28;20225;-47
2023/05/17 05:09:09;;;;;;;6.90;6.07;;;;;;;14.29;75.61;100240.38;5065434;28;20574;-46
2023/05/17 05:11:37;;;;;;;7.43;6.63;;;;;;;14.28;76.21;100236.06;5063536;28;20205;-48
2023/05/17 05:14:05;;;;;;;7.30;6.70;;;;;;;14.29;76.22;100242.97;5068265;28;20634;-47
2023/05/17 05:16:33;;;;;;;8.17;7.47;;;;;;;14.32;75.78;100245.47;5062044;28;20217;-47
2023/05/17 05:19:01;;;;;;;8.97;8.00;;;;;;;14.32;76.23;100250.63;5065210;28;20648;-46
2023/05/17 05:21:30;;;;;;;7.17;6.47;;;;;;;14.33;75.77;100246.34;5057100;28;20275;-46
2023/05/17 05:23:58;;;;;;;7.57;6.87;;;;;;;14.32;75.77;100245.47;5066424;28;20201;-46
2023/05/17 05:26:27;;;;;;;6.30;5.70;;;;;;;14.33;75.80;100244.59;5069210;28;20198;-46
2023/05/17 05:28:55;;;;;;;6.20;5.70;;;;;;;14.33;75.73;100242.00;5069652;28;20291;-47
2023/05/17 05:31:23;;;;;;;6.13;5.53;;;;;;;14.35;75.80;100244.53;5062739;28;20198;-48
2023/05/17 05:33:51;;;;;;;6.97;6.37;;;;;;;14.36;75.57;100241.94;5059729;28;20210;-46
2023/05/17 05:36:19;;;;;;;7.18;6.38;;;;;;;14.42;76.20;100239.16;5067146;28;20215;-47
2023/05/17 05:38:48;;;;;;;6.50;5.90;;;;;;;14.44;75.54;100242.59;5070155;28;20201;-47
2023/05/17 05:41:16;;;;;;;6.53;5.90;;;;;;;14.43;75.90;100233.13;5066568;28;20205;-46
2023/05/17 05:43:45;;;;;;;6.30;5.70;;;;;;;14.43;75.68;100221.88;5065368;28;20212;-47
2023/05/17 05:46:13;;;;;;;6.83;6.13;;;;;;;14.46;76.22;100214.88;5067856;28;20201;-47
2023/05/17 05:48:42;;;;;;;6.00;5.40;;;;;;;14.50;76.27;100208.75;5064492;28;20205;-47
2023/05/17 05:51:11;;;;;;;6.67;6.07;;;;;;;14.49;75.37;100212.25;5069682;28;20204;-45
2023/05/17 05:53:39;;;;;;;5.33;4.93;;;;;;;14.45;75.93;100202.81;5063579;28;20197;-47
2023/05/17 05:56:08;;;;;;;5.10;4.70;;;;;;;14.43;75.96;100204.59;5066810;28;20300;-46
2023/05/17 05:58:36;;;;;;;5.90;4.97;;;;;;;14.45;75.84;100209.75;5066445;28;20228;-46
2023/05/17 06:01:05;;;;;;;5.70;5.20;;;;;;;14.46;75.80;100209.69;5064574;28;20284;-46
2023/05/17 06:03:33;;;;;;;5.60;5.10;;;;;;;14.47;75.84;100215.72;5063026;28;20201;-53
2023/05/17 06:06:01;;;;;;;6.28;4.97;;;;;;;14.44;75.32;100218.41;5068633;28;20221;-58
2023/05/17 06:08:29;;;;;;;5.60;5.10;;;;;;;14.41;75.26;100229.69;5074836;28;20258;-47
2023/05/17 06:10:57;;;;;;;4.90;4.50;;;;;;;14.44;75.76;100240.00;5068646;28;20263;-48
2023/05/17 06:13:25;;;;;;;5.07;4.67;;;;;;;14.43;75.34;100248.69;5072142;28;20545;-47
2023/05/17 06:15:53;;;;;;;5.30;4.40;;;;;;;14.42;75.16;100246.09;5074858;28;20655;-47
2023/05/17 06:18:22;;;;;;;5.50;5.00;;;;;;;14.41;75.24;100249.59;5073096;28;20217;-47
2023/05/17 06:20:50;;;;;;;5.40;4.90;;;;;;;14.35;75.50;100253.16;5074055;28;20209;-48
2023/05/17 06:23:18;;;;;;;5.47;4.50;;;;;;;14.36;75.38;100249.72;5071368;28;20640;-46
2023/05/17 06:25:46;;;;;;;4.80;4.40;;;;;;;14.36;75.85;100252.31;5065530;28;20245;-48
2023/05/17 06:28:13;;;;;;;5.33;4.67;;;;;;;14.33;75.39;100254.97;5069329;28;20279;-48
2023/05/17 06:30:41;;;;;;;5.50;5.00;;;;;;;14.26;75.48;100259.44;5072755;28;20204;-48
2023/05/17 06:33:09;;;;;;;6.67;6.07;;;;;;;14.23;75.29;100261.25;5070734;28;20651;-49
2023/05/17 06:35:38;;;;;;;7.80;7.07;;;;;;;14.20;76.22;100263.91;5069596;28;20659;-48
2023/05/17 06:38:23;;;;;;;6.90;6.23;;;;;;;14.19;75.85;100264.78;5071558;28;20707;-47
2023/05/17 06:40:52;;;;;;;6.83;6.33;;;;;;;14.13;76.03;100268.34;5070063;28;20209;-48
2023/05/17 06:43:20;;;;;;;6.20;5.70;;;;;;;14.15;76.72;100273.53;5068684;28;20292;-46
2023/05/17 06:45:48;;;;;;;6.10;5.60;;;;;;;14.20;76.96;100274.25;5070069;28;20212;-47
2023/05/17 06:48:16;;;;;;;5.37;4.97;;;;;;;14.23;76.30;100281.97;5068041;28;20208;-45
2023/05/17 06:50:46;;;;;;;5.63;5.13;;;;;;;14.26;76.18;100284.50;5064013;28;20197;-49
2023/05/17 06:53:14;;;;;;;4.90;4.50;;;;;;;14.22;75.96;100298.41;5067852;28;20220;-46
2023/05/17 06:55:42;;;;;;;6.37;4.93;;;;;;;14.14;76.43;100297.72;5069836;28;20565;-46
2023/05/17 06:58:10;;;;;;;5.17;4.77;;;;;;;14.01;76.73;100308.34;5068332;28;20833;-47
2023/05/17 07:00:38;;;;;;;5.17;4.67;;;;;;;13.94;77.65;100306.78;5069639;28;20202;-47
2023/05/17 07:03:06;;;;;;;5.13;4.73;;;;;;;13.89;77.04;100308.63;5070454;28;20212;-47
2023/05/17 07:05:34;;;;;;;5.27;4.87;;;;;;;13.86;77.19;100303.50;5072813;28;20809;-46
2023/05/17 07:08:04;;;;;;;4.90;4.50;;;;;;;13.90;77.15;100304.28;5062921;28;20717;-47
2023/05/17 07:10:32;;;;;;;6.23;5.10;;;;;;;13.94;77.43;100291.22;5071843;28;20647;-48
2023/05/17 07:13:00;;;;;;;6.77;4.90;;;;;;;13.99;77.21;100304.09;5073901;28;20197;-47
2023/05/17 07:15:28;;;;;;;5.53;5.03;;;;;;;14.07;77.17;100304.78;5071044;28;20197;-54
2023/05/17 07:17:58;;;;;;;5.20;4.70;;;;;;;14.17;76.91;100297.66;5065880;28;20308;-47
2023/05/17 07:20:26;;;;;;;5.10;4.70;;;;;;;14.27;77.14;100299.16;5065153;28;20205;-46
2023/05/17 07:22:55;;;;;;;5.67;5.27;;;;;;;14.33;77.00;100303.38;5067765;28;20205;-47
2023/05/17 07:25:24;;;;;;;4.87;4.50;;;;;;;14.34;76.33;100300.72;5067257;28;20264;-46
2023/05/17 07:27:52;;;;;;;6.60;5.23;;;;;;;14.35;75.97;100299.81;5065334;28;20712;-48
2023/05/17 07:30:20;;;;;;;5.40;4.90;;;;;;;14.40;75.98;100299.75;5073262;28;20205;-51
2023/05/17 07:32:47;;;;;;;6.77;4.97;;;;;;;14.45;75.90;100297.88;5072191;28;20205;-50
2023/05/17 07:35:15;;;;;;;5.30;4.90;;;;;;;14.48;75.87;100300.41;5067539;28;20278;-48
2023/05/17 07:37:46;;;;;;;5.10;4.63;;;;;;;14.48;75.46;100303.00;5071489;28;20310;-49
2023/05/17 07:40:14;;;;;;;5.10;4.63;;;;;;;14.50;75.74;100302.09;5070059;28;20678;-47
2023/05/17 07:42:43;;;;;;;4.83;4.27;;;;;;;14.50;75.24;100298.66;5071583;28;20205;-47
2023/05/17 07:45:11;;;;;;;5.50;5.00;;;;;;;14.49;75.13;100299.50;5061697;28;20197;-55
2023/05/17 07:47:39;;;;;;;5.17;4.77;;;;;;;14.44;74.81;100310.00;5069235;28;20205;-48
2023/05/17 07:50:07;;;;;;;5.77;5.27;;;;;;;14.40;75.28;100310.97;5069114;28;20631;-45
2023/05/17 07:52:35;;;;;;;4.90;4.50;;;;;;;14.39;75.41;100313.56;5065351;28;20217;-47
2023/05/17 07:55:04;;;;;;;5.13;4.63;;;;;;;14.34;75.27;100321.47;5068433;28;20576;-49
2023/05/17 07:57:32;;;;;;;6.40;5.07;;;;;;;14.28;75.73;100316.41;5069593;28;20236;-48
2023/05/17 08:00:02;;;;;;;4.77;4.37;;;;;;;14.20;75.89;100313.13;5065986;28;20215;-46
2023/05/17 08:02:30;;;;;;;5.50;5.00;;;;;;;14.21;77.30;100318.31;5058926;28;20645;-64
2023/05/17 08:04:58;;;;;;;5.90;5.40;;;;;;;14.29;78.69;100325.91;5063132;28;20201;-67
2023/05/17 08:07:26;;;;;;;5.47;4.93;;;;;;;14.33;79.10;100324.09;5059677;28;20602;-71
2023/05/17 08:09:54;;;;;;;5.30;4.80;;;;;;;14.28;76.99;100326.78;5067393;28;20209;-69
2023/05/17 08:12:22;;;;;;;5.20;4.77;;;;;;;14.21;76.95;100330.38;5059498;28;20220;-63
2023/05/17 08:14:50;;;;;;;6.20;4.70;;;;;;;14.15;77.55;100320.16;5061901;28;20207;-63
2023/05/17 08:17:21;;;;;;;4.60;4.23;;;;;;;14.13;77.50;100319.34;5059666;28;20193;-64
2023/05/17 08:19:49;;;;;;;6.37;4.77;;;;;;;14.17;77.74;100324.41;5065048;28;20197;-62
2023/05/17 08:22:16;;;;;;;5.47;4.97;;;;;;;14.22;77.11;100330.38;5067591;28;20205;-62
2023/05/17 08:24:44;;;;;;;5.40;4.60;;;;;;;14.23;76.90;100326.03;5059052;28;20244;-62
2023/05/17 08:27:12;;;;;;;4.73;4.33;;;;;;;14.27;77.08;100330.25;5063144;28;20201;-63
2023/05/17 08:29:40;;;;;;;4.37;4.07;;;;;;;14.37;76.83;100331.78;5059595;28;20224;-65
2023/05/17 08:32:09;;;;;;;4.20;3.80;;;;;;;14.46;76.25;100331.53;5065929;28;20279;-62
2023/05/17 08:34:40;;;;;;;6.40;4.27;;;;;;;14.45;75.36;100329.84;5069618;28;20722;-65
2023/05/17 08:37:08;;;;;;;3.57;3.37;;;;;;;14.34;75.15;100339.59;5067608;28;20543;-62
2023/05/17 08:39:36;;;;;;;3.80;3.50;;;;;;;14.33;75.16;100344.84;5060460;28;20696;-62
2023/05/17 08:42:07;;;;;;;4.50;4.10;;;;;;;14.37;76.20;100344.72;5058093;28;20601;-63
2023/05/17 08:44:37;;;;;;;4.43;4.03;;;;;;;14.42;75.49;100345.47;5062922;28;20656;-63
2023/05/17 08:47:08;;;;;;;3.80;3.50;;;;;;;14.41;75.60;100346.38;5064111;28;20210;-63
2023/05/17 08:49:36;;;;;;;4.37;3.97;;;;;;;14.46;75.61;100359.22;5070038;28;20223;-68
2023/05/17 08:52:08;;;;;;;3.80;3.50;;;;;;;14.47;75.09;100356.59;5065318;28;20222;-63
2023/05/17 08:54:36;;;;;;;4.10;3.80;;;;;;;14.37;74.48;100362.88;5063448;28;20258;-62
2023/05/17 08:57:06;;;;;;;3.97;3.67;;;;;;;14.19;75.03;100364.13;5057212;28;20205;-64
2023/05/17 08:59:35;;;;;;;3.80;3.50;;;;;;;14.11;75.76;100375.53;5061713;28;20225;-65
2023/05/17 09:02:06;;;;;;;4.23;3.83;;;;;;;13.93;75.46;100376.78;5062560;28;20197;-60
2023/05/17 09:04:34;;;;;;;4.30;4.00;;;;;;;13.88;76.05;100371.69;5059845;28;20698;-62
2023/05/17 09:07:02;;;;;;;4.03;3.57;;;;;;;13.89;75.90;100369.94;5065077;28;20293;-67
2023/05/17 09:09:31;;;;;;;6.53;4.07;;;;;;;13.93;76.13;100369.84;5063453;28;20197;-67
2023/05/17 09:11:59;;;;;;;4.57;4.17;;;;;;;13.94;74.99;100373.28;5059895;28;20225;-68
2023/05/17 09:14:32;;;;;;;3.93;3.63;;;;;;;13.85;74.49;100376.91;5060670;28;20209;-67
2023/05/17 09:17:01;;;;;;;5.47;4.70;;;;;;;13.86;75.35;100377.78;5059347;28;20197;-69
2023/05/17 09:19:31;;;;;;;5.23;4.40;;;;;;;13.92;76.09;100375.06;5063379;28;20262;-66
2023/05/17 09:22:01;;;;;;;5.05;4.65;;;;;;;13.93;75.49;100366.41;5069133;28;20223;-69
2023/05/17 09:24:31;;;;;;;5.75;5.15;;;;;;;13.73;75.14;100365.06;5065578;28;20259;-68
2023/05/17 09:27:03;;;;;;;5.17;4.77;;;;;;;13.55;76.17;100365.41;5069812;28;20205;-65
2023/05/17 09:29:32;;;;;;;6.53;5.70;;;;;;;13.44;76.36;100373.38;5062981;28;20294;-66
2023/05/17 09:32:12;;;;;;;6.93;4.97;;;;;;;13.42;76.90;100380.31;5069157;28;20569;-66
2023/05/17 09:34:41;;;;;;;4.63;4.13;;;;;;;13.42;76.34;100387.22;5066374;28;20715;-66
2023/05/17 09:37:19;;;;;;;5.10;4.43;;;;;;;13.43;77.24;100391.50;5066196;28;20227;-68
2023/05/17 09:39:49;;;;;;;5.97;4.57;;;;;;;13.43;75.89;100389.78;5069837;28;20217;-69
2023/05/17 09:42:17;;;;;;;5.27;4.77;;;;;;;13.41;76.40;100388.97;5070566;28;20229;-69
2023/05/17 09:44:47;;;;;;;6.10;5.50;;;;;;;13.44;76.19;100394.09;5062121;28;20212;-66
2023/05/17 09:47:25;;;;;;;6.27;5.67;;;;;;;13.43;76.89;100397.53;5066811;28;20656;-67
2023/05/17 09:49:55;;;;;;;6.70;6.07;;;;;;;13.34;77.47;100392.53;5068171;28;20270;-69
2023/05/17 09:52:23;;;;;;;7.10;5.77;;;;;;;13.23;76.78;100399.59;5065583;28;20211;-68
2023/05/17 09:54:53;;;;;;;6.73;6.13;;;;;;;13.11;77.24;100397.19;5061126;28;20566;-70
2023/05/17 09:57:22;;;;;;;8.70;6.77;;;;;;;12.97;77.52;100400.88;5059356;28;20205;-66
2023/05/17 09:59:51;;;;;;;6.53;5.87;;;;;;;12.90;77.58;100401.84;5066399;28;20224;-68
2023/05/17 10:02:26;;;;;;;6.87;5.83;;;;;;;12.87;77.40;100411.38;5063612;28;20250;-68
2023/05/17 10:04:56;;;;;;;7.53;6.77;;;;;;;12.82;77.73;100420.06;5060713;28;20582;-68
2023/05/17 10:07:26;;;;;;;8.13;6.73;;;;;;;12.75;78.09;100423.63;5061423;28;20714;-67
2023/05/17 10:09:57;;;;;;;7.37;6.43;;;;;;;12.79;77.95;100421.84;5057744;28;20204;-66
2023/05/17 10:12:28;;;;;;;7.17;6.40;;;;;;;12.78;77.37;100422.72;5063716;28;20545;-70
2023/05/17 10:14:58;;;;;;;10.10;6.90;;;;;;;12.76;77.78;100421.88;5058563;28;20212;-72
2023/05/17 10:17:28;;;;;;;7.80;7.00;;;;;;;12.73;77.21;100414.16;5063351;28;20608;-70
2023/05/17 10:19:57;;;;;;;9.03;6.90;;;;;;;12.68;77.65;100413.38;5066974;28;20339;-68
2023/05/17 10:22:27;;;;;;;10.60;8.53;;;;;;;12.67;76.78;100415.13;5067735;28;20575;-67
2023/05/17 10:24:57;;;;;;;8.90;7.40;;;;;;;12.69;76.91;100422.84;5067177;28;20817;-68
2023/05/17 10:27:26;;;;;;;9.00;7.13;;;;;;;12.71;77.16;100421.09;5063745;28;20213;-68
2023/05/17 10:29:55;;;;;;;8.47;6.80;;;;;;;12.76;77.15;100425.31;5068773;28;20209;-68
2023/05/17 10:32:25;;;;;;;11.60;7.50;;;;;;;12.75;75.85;100428.78;5070483;28;20193;-67
2023/05/17 10:34:54;;;;;;;8.27;6.83;;;;;;;12.76;77.06;100427.91;5063742;28;20699;-68
2023/05/17 10:37:39;;;;;;;12.07;7.33;;;;;;;12.86;76.71;100430.38;5059317;28;20545;-66
2023/05/17 10:40:12;;;;;;;8.47;7.57;;;;;;;12.94;76.53;100429.38;5060917;28;20213;-67
2023/05/17 10:42:43;;;;;;;9.00;6.93;;;;;;;13.03;75.83;100431.81;5063631;28;20691;-68
2023/05/17 10:45:12;;;;;;;8.83;7.30;;;;;;;13.06;75.25;100421.41;5064072;28;20193;-65
2023/05/17 10:47:41;;;;;;;8.50;6.97;;;;;;;13.10;75.48;100434.28;5069127;28;20194;-64
2023/05/17 10:50:11;;;;;;;11.17;6.83;;;;;;;13.19;75.53;100429.00;5069126;28;20208;-64
2023/05/17 10:52:47;;;;;;;8.83;6.77;;;;;;;13.25;74.39;100431.50;5071797;28;20197;-67
2023/05/17 10:55:20;;;;;;;9.53;7.07;;;;;;;13.22;74.79;100427.22;5072223;28;20208;-65
2023/05/17 10:58:15;;;;;;;8.17;6.30;;;;;;;13.22;74.63;100434.13;5068370;28;20209;-66
2023/05/17 11:00:46;;;;;;;10.00;7.13;;;;;;;13.19;75.62;100434.16;5067117;28;20291;-65
2023/05/17 11:03:16;;;;;;;10.90;7.27;;;;;;;13.17;75.37;100439.34;5071742;28;20205;-66
2023/05/17 11:06:05;;;;;;;12.13;7.57;;;;;;;13.26;75.86;100435.81;5072795;28;20212;-65
2023/05/17 11:09:06;;;;;;;7.30;6.17;;;;;;;13.40;74.03;100433.84;5066343;28;20614;-64
2023/05/17 11:11:36;;;;;;;9.57;6.27;;;;;;;13.39;73.79;100441.63;5057905;28;20201;-67
2023/05/17 11:14:05;;;;;;;9.87;6.43;;;;;;;13.37;74.66;100441.66;5068977;28;20220;-65
2023/05/17 11:16:36;;;;;;;7.50;5.50;;;;;;;13.39;74.71;100447.66;5066343;28;20201;-67
2023/05/17 11:19:09;;;;;;;8.33;5.93;;;;;;;13.51;74.69;100449.19;5072303;28;20227;-66
2023/05/17 11:21:46;;;;;;;8.83;5.27;;;;;;;13.51;73.79;100452.66;5069828;28;20201;-66
2023/05/17 11:24:17;;;;;;;7.27;5.07;;;;;;;13.39;72.91;100452.81;5066423;28;20597;-65
2023/05/17 11:26:50;;;;;;;7.27;5.00;;;;;;;13.32;73.69;100456.41;5067084;28;20248;-70
2023/05/17 11:29:18;;;;;;;6.80;4.53;;;;;;;13.33;74.19;100457.25;5065735;28;20220;-69
2023/05/17 11:31:51;;;;;;;6.83;4.97;;;;;;;13.31;74.46;100459.88;5070840;28;20704;-67